sensor_id;sensor_type;location;lat;lon;timestamp;temperature;humidity
75838;SHT30;64480;52.040;113.502;2023-02-23T00:00:15;-12.34;59.09
75838;SHT30;64480;52.040;113.502;2023-02-23T00:03:32;-11.27;55.00
75838;SHT30;64480;52.040;113.502;2023-02-23T00:06:38;-10.17;51.64
75838;SHT30;64480;52.040;113.502;2023-02-23T00:09:56;-9.44;48.44
75838;SHT30;64480;52.040;113.502;2023-02-23T00:13:26;-9.52;47.30
75838;SHT30;64480;52.040;113.502;2023-02-23T00:16:45;-9.66;47.82
75838;SHT30;64480;52.040;113.502;2023-02-23T00:20:04;-9.34;47.90
75838;SHT30;64480;52.040;113.502;2023-02-23T00:23:27;-8.51;45.50
75838;SHT30;64480;52.040;113.502;2023-02-23T00:26:45;-7.92;43.62
75838;SHT30;64480;52.040;113.502;2023-02-23T00:30:03;-8.19;43.10
75838;SHT30;64480;52.040;113.502;2023-02-23T00:33:34;-8.45;44.00
75838;SHT30;64480;52.040;113.502;2023-02-23T00:36:53;-9.07;45.85
75838;SHT30;64480;52.040;113.502;2023-02-23T00:40:11;-9.51;47.59
75838;SHT30;64480;52.040;113.502;2023-02-23T00:43:36;-9.27;48.14
75838;SHT30;64480;52.040;113.502;2023-02-23T00:46:54;-9.89;48.47
75838;SHT30;64480;52.040;113.502;2023-02-23T00:50:13;-10.37;50.57
75838;SHT30;64480;52.040;113.502;2023-02-23T00:53:33;-10.75;50.66
75838;SHT30;64480;52.040;113.502;2023-02-23T00:56:52;-11.01;51.53
75838;SHT30;64480;52.040;113.502;2023-02-23T01:00:03;-11.10;52.06
75838;SHT30;64480;52.040;113.502;2023-02-23T01:03:21;-11.17;52.32
75838;SHT30;64480;52.040;113.502;2023-02-23T01:06:41;-11.20;51.88
75838;SHT30;64480;52.040;113.502;2023-02-23T01:10:07;-11.11;52.49
75838;SHT30;64480;52.040;113.502;2023-02-23T01:13:43;-11.03;51.77
75838;SHT30;64480;52.040;113.502;2023-02-23T01:17:03;-10.96;51.88
75838;SHT30;64480;52.040;113.502;2023-02-23T01:20:16;-11.04;51.78
75838;SHT30;64480;52.040;113.502;2023-02-23T01:24:04;-11.10;52.33
75838;SHT30;64480;52.040;113.502;2023-02-23T01:28:16;-11.03;52.79
75838;SHT30;64480;52.040;113.502;2023-02-23T01:31:25;-10.97;52.77
75838;SHT30;64480;52.040;113.502;2023-02-23T01:34:44;-10.91;53.09
75838;SHT30;64480;52.040;113.502;2023-02-23T01:38:03;-10.79;53.25
75838;SHT30;64480;52.040;113.502;2023-02-23T01:41:28;-10.73;52.90
75838;SHT30;64480;52.040;113.502;2023-02-23T01:45:12;-10.59;52.41
75838;SHT30;64480;52.040;113.502;2023-02-23T01:49:00;-10.48;51.80
75838;SHT30;64480;52.040;113.502;2023-02-23T01:52:23;-10.42;50.76
75838;SHT30;64480;52.040;113.502;2023-02-23T01:55:42;-10.46;49.80
75838;SHT30;64480;52.040;113.502;2023-02-23T01:59:04;-10.48;48.89
75838;SHT30;64480;52.040;113.502;2023-02-23T02:02:27;-10.56;48.52
75838;SHT30;64480;52.040;113.502;2023-02-23T02:05:53;-10.53;49.50
75838;SHT30;64480;52.040;113.502;2023-02-23T02:09:19;-10.45;49.47
75838;SHT30;64480;52.040;113.502;2023-02-23T02:12:50;-10.42;48.20
75838;SHT30;64480;52.040;113.502;2023-02-23T02:31:41;-10.02;46.76
75838;SHT30;64480;52.040;113.502;2023-02-23T02:46:22;-9.51;45.97
75838;SHT30;64480;52.040;113.502;2023-02-23T02:50:18;-9.52;46.47
75838;SHT30;64480;52.040;113.502;2023-02-23T02:53:54;-9.33;46.28
75838;SHT30;64480;52.040;113.502;2023-02-23T02:57:32;-9.33;46.31
75838;SHT30;64480;52.040;113.502;2023-02-23T03:00:47;-9.26;44.98
75838;SHT30;64480;52.040;113.502;2023-02-23T03:04:26;-9.28;45.10
75838;SHT30;64480;52.040;113.502;2023-02-23T03:12:22;-8.99;44.28
75838;SHT30;64480;52.040;113.502;2023-02-23T03:16:15;-8.95;43.50
75838;SHT30;64480;52.040;113.502;2023-02-23T03:20:05;-8.84;43.40
75838;SHT30;64480;52.040;113.502;2023-02-23T03:36:18;-8.73;43.24
75838;SHT30;64480;52.040;113.502;2023-02-23T03:40:22;-8.71;42.89
75838;SHT30;64480;52.040;113.502;2023-02-23T03:44:14;-8.45;43.05
75838;SHT30;64480;52.040;113.502;2023-02-23T03:47:54;-8.38;42.35
75838;SHT30;64480;52.040;113.502;2023-02-23T03:51:47;-8.24;42.79
75838;SHT30;64480;52.040;113.502;2023-02-23T03:55:17;-8.13;42.04
75838;SHT30;64480;52.040;113.502;2023-02-23T03:58:57;-8.07;41.42
75838;SHT30;64480;52.040;113.502;2023-02-23T04:02:38;-8.01;39.98
75838;SHT30;64480;52.040;113.502;2023-02-23T04:06:17;-7.82;39.21
75838;SHT30;64480;52.040;113.502;2023-02-23T04:09:56;-7.75;37.73
75838;SHT30;64480;52.040;113.502;2023-02-23T04:13:29;-7.61;39.70
75838;SHT30;64480;52.040;113.502;2023-02-23T04:16:48;-7.58;37.72
75838;SHT30;64480;52.040;113.502;2023-02-23T04:20:09;-7.47;38.21
75838;SHT30;64480;52.040;113.502;2023-02-23T04:23:39;-7.26;38.05
75838;SHT30;64480;52.040;113.502;2023-02-23T04:27:02;-7.24;34.92
75838;SHT30;64480;52.040;113.502;2023-02-23T04:30:19;-7.39;34.86
75838;SHT30;64480;52.040;113.502;2023-02-23T04:33:29;-7.30;35.32
75838;SHT30;64480;52.040;113.502;2023-02-23T04:36:37;-7.12;34.46
75838;SHT30;64480;52.040;113.502;2023-02-23T04:39:55;-6.98;34.98
75838;SHT30;64480;52.040;113.502;2023-02-23T04:43:14;-6.98;34.03
75838;SHT30;64480;52.040;113.502;2023-02-23T04:47:08;-7.11;33.99
75838;SHT30;64480;52.040;113.502;2023-02-23T04:50:52;-7.13;34.24
75838;SHT30;64480;52.040;113.502;2023-02-23T04:54:11;-6.92;34.54
75838;SHT30;64480;52.040;113.502;2023-02-23T04:57:27;-6.77;34.00
75838;SHT30;64480;52.040;113.502;2023-02-23T05:00:33;-6.65;33.53
75838;SHT30;64480;52.040;113.502;2023-02-23T05:03:51;-6.65;33.57
75838;SHT30;64480;52.040;113.502;2023-02-23T05:07:08;-6.34;34.20
75838;SHT30;64480;52.040;113.502;2023-02-23T05:10:21;-6.09;33.90
75838;SHT30;64480;52.040;113.502;2023-02-23T05:13:42;-6.03;33.33
75838;SHT30;64480;52.040;113.502;2023-02-23T05:17:04;-5.99;34.09
75838;SHT30;64480;52.040;113.502;2023-02-23T05:20:29;-6.03;33.56
75838;SHT30;64480;52.040;113.502;2023-02-23T05:23:46;-5.97;33.55
75838;SHT30;64480;52.040;113.502;2023-02-23T05:27:36;-5.95;33.03
75838;SHT30;64480;52.040;113.502;2023-02-23T05:30:57;-5.97;32.28
75838;SHT30;64480;52.040;113.502;2023-02-23T05:34:22;-5.98;33.43
75838;SHT30;64480;52.040;113.502;2023-02-23T05:37:45;-5.87;32.71
75838;SHT30;64480;52.040;113.502;2023-02-23T05:41:10;-5.91;32.71
75838;SHT30;64480;52.040;113.502;2023-02-23T05:44:21;-6.01;32.83
75838;SHT30;64480;52.040;113.502;2023-02-23T05:47:52;-5.95;33.77
75838;SHT30;64480;52.040;113.502;2023-02-23T05:51:37;-5.64;33.23
75838;SHT30;64480;52.040;113.502;2023-02-23T05:55:19;-5.33;33.98
75838;SHT30;64480;52.040;113.502;2023-02-23T05:59:13;-5.13;32.90
75838;SHT30;64480;52.040;113.502;2023-02-23T06:02:37;-5.20;31.80
75838;SHT30;64480;52.040;113.502;2023-02-23T06:06:27;-5.23;31.18
75838;SHT30;64480;52.040;113.502;2023-02-23T06:10:05;-5.28;31.36
75838;SHT30;64480;52.040;113.502;2023-02-23T06:13:32;-5.11;32.19
75838;SHT30;64480;52.040;113.502;2023-02-23T06:16:50;-5.09;30.88
75838;SHT30;64480;52.040;113.502;2023-02-23T06:20:07;-5.07;30.29
75838;SHT30;64480;52.040;113.502;2023-02-23T06:23:24;-5.04;30.50
75838;SHT30;64480;52.040;113.502;2023-02-23T06:26:49;-4.95;30.20
75838;SHT30;64480;52.040;113.502;2023-02-23T06:29:56;-4.97;30.03
75838;SHT30;64480;52.040;113.502;2023-02-23T06:33:16;-4.90;29.89
75838;SHT30;64480;52.040;113.502;2023-02-23T06:36:42;-4.81;29.91
75838;SHT30;64480;52.040;113.502;2023-02-23T06:40:00;-4.84;29.27
75838;SHT30;64480;52.040;113.502;2023-02-23T06:43:38;-4.79;29.00
75838;SHT30;64480;52.040;113.502;2023-02-23T06:47:04;-4.74;28.72
75838;SHT30;64480;52.040;113.502;2023-02-23T06:50:42;-4.66;29.16
75838;SHT30;64480;52.040;113.502;2023-02-23T06:54:10;-4.59;29.08
75838;SHT30;64480;52.040;113.502;2023-02-23T06:57:17;-4.53;29.29
75838;SHT30;64480;52.040;113.502;2023-02-23T07:00:41;-4.50;29.19
75838;SHT30;64480;52.040;113.502;2023-02-23T07:04:01;-4.52;28.61
75838;SHT30;64480;52.040;113.502;2023-02-23T07:07:19;-4.43;29.18
75838;SHT30;64480;52.040;113.502;2023-02-23T07:10:24;-4.32;29.65
75838;SHT30;64480;52.040;113.502;2023-02-23T07:13:41;-4.30;28.37
75838;SHT30;64480;52.040;113.502;2023-02-23T07:16:54;-4.18;28.48
75838;SHT30;64480;52.040;113.502;2023-02-23T07:20:15;-4.25;28.16
75838;SHT30;64480;52.040;113.502;2023-02-23T07:23:22;-4.12;27.93
75838;SHT30;64480;52.040;113.502;2023-02-23T07:26:39;-4.07;28.09
75838;SHT30;64480;52.040;113.502;2023-02-23T07:30:07;-4.09;28.49
75838;SHT30;64480;52.040;113.502;2023-02-23T07:33:24;-4.07;26.23
75838;SHT30;64480;52.040;113.502;2023-02-23T07:36:45;-4.04;26.95
75838;SHT30;64480;52.040;113.502;2023-02-23T07:40:08;-3.94;27.41
75838;SHT30;64480;52.040;113.502;2023-02-23T07:43:26;-3.87;27.27
75838;SHT30;64480;52.040;113.502;2023-02-23T07:46:44;-3.76;27.10
75838;SHT30;64480;52.040;113.502;2023-02-23T07:50:04;-3.32;27.18
75838;SHT30;64480;52.040;113.502;2023-02-23T07:53:27;-3.30;26.88
75838;SHT30;64480;52.040;113.502;2023-02-23T07:57:11;-3.31;24.62
75838;SHT30;64480;52.040;113.502;2023-02-23T08:00:33;-3.21;24.31
75838;SHT30;64480;52.040;113.502;2023-02-23T08:03:59;-2.49;23.74
75838;SHT30;64480;52.040;113.502;2023-02-23T08:07:17;-2.96;23.49
75838;SHT30;64480;52.040;113.502;2023-02-23T08:17:58;-3.73;25.82
75838;SHT30;64480;52.040;113.502;2023-02-23T08:21:22;-3.81;25.69
75838;SHT30;64480;52.040;113.502;2023-02-23T08:24:45;-3.93;25.66
75838;SHT30;64480;52.040;113.502;2023-02-23T08:28:04;-4.04;25.95
75838;SHT30;64480;52.040;113.502;2023-02-23T08:31:32;-3.99;26.12
75838;SHT30;64480;52.040;113.502;2023-02-23T08:34:52;-3.97;26.16
75838;SHT30;64480;52.040;113.502;2023-02-23T08:38:12;-3.94;27.03
75838;SHT30;64480;52.040;113.502;2023-02-23T08:41:29;-3.91;26.29
75838;SHT30;64480;52.040;113.502;2023-02-23T08:44:48;-3.99;26.74
75838;SHT30;64480;52.040;113.502;2023-02-23T08:48:34;-3.99;26.36
75838;SHT30;64480;52.040;113.502;2023-02-23T08:51:55;-4.08;26.87
75838;SHT30;64480;52.040;113.502;2023-02-23T08:55:12;-4.11;26.91
75838;SHT30;64480;52.040;113.502;2023-02-23T08:58:43;-4.14;26.54
75838;SHT30;64480;52.040;113.502;2023-02-23T09:02:01;-4.19;26.13
75838;SHT30;64480;52.040;113.502;2023-02-23T09:05:27;-4.18;26.65
75838;SHT30;64480;52.040;113.502;2023-02-23T09:08:45;-4.22;27.01
75838;SHT30;64480;52.040;113.502;2023-02-23T09:12:03;-4.26;27.26
75838;SHT30;64480;52.040;113.502;2023-02-23T09:15:20;-4.37;27.60
75838;SHT30;64480;52.040;113.502;2023-02-23T09:18:41;-4.45;27.85
75838;SHT30;64480;52.040;113.502;2023-02-23T09:22:02;-4.54;27.41
75838;SHT30;64480;52.040;113.502;2023-02-23T09:25:22;-4.62;27.67
75838;SHT30;64480;52.040;113.502;2023-02-23T09:28:31;-4.70;27.69
75838;SHT30;64480;52.040;113.502;2023-02-23T09:31:56;-4.74;28.26
75838;SHT30;64480;52.040;113.502;2023-02-23T09:35:14;-4.81;28.64
75838;SHT30;64480;52.040;113.502;2023-02-23T09:38:34;-4.84;28.59
75838;SHT30;64480;52.040;113.502;2023-02-23T09:49:07;-5.07;29.98
75838;SHT30;64480;52.040;113.502;2023-02-23T09:52:44;-5.16;29.55
75838;SHT30;64480;52.040;113.502;2023-02-23T09:56:32;-5.25;29.64
75838;SHT30;64480;52.040;113.502;2023-02-23T09:59:47;-5.29;29.20
75838;SHT30;64480;52.040;113.502;2023-02-23T10:03:31;-5.37;30.04
75838;SHT30;64480;52.040;113.502;2023-02-23T10:10:27;-5.46;30.32
75838;SHT30;64480;52.040;113.502;2023-02-23T10:20:45;-5.66;30.81
75838;SHT30;64480;52.040;113.502;2023-02-23T10:27:48;-5.78;32.54
75838;SHT30;64480;52.040;113.502;2023-02-23T10:31:33;-5.84;32.47
75838;SHT30;64480;52.040;113.502;2023-02-23T10:35:09;-5.88;33.05
75838;SHT30;64480;52.040;113.502;2023-02-23T10:38:58;-5.95;33.28
75838;SHT30;64480;52.040;113.502;2023-02-23T10:42:06;-5.99;34.29
75838;SHT30;64480;52.040;113.502;2023-02-23T10:45:29;-6.15;35.88
75838;SHT30;64480;52.040;113.502;2023-02-23T10:48:42;-6.23;36.59
75838;SHT30;64480;52.040;113.502;2023-02-23T10:51:51;-6.33;37.33
75838;SHT30;64480;52.040;113.502;2023-02-23T10:55:33;-6.41;38.31
75838;SHT30;64480;52.040;113.502;2023-02-23T10:58:56;-6.58;38.95
75838;SHT30;64480;52.040;113.502;2023-02-23T11:02:22;-6.74;39.04
75838;SHT30;64480;52.040;113.502;2023-02-23T11:05:34;-6.91;39.39
75838;SHT30;64480;52.040;113.502;2023-02-23T11:08:51;-7.02;39.93
75838;SHT30;64480;52.040;113.502;2023-02-23T11:12:55;-7.36;39.55
75838;SHT30;64480;52.040;113.502;2023-02-23T11:16:29;-7.68;40.00
75838;SHT30;64480;52.040;113.502;2023-02-23T11:23:44;-7.92;40.99
75838;SHT30;64480;52.040;113.502;2023-02-23T11:27:04;-7.95;41.25
75838;SHT30;64480;52.040;113.502;2023-02-23T11:30:24;-7.99;41.46
75838;SHT30;64480;52.040;113.502;2023-02-23T11:33:46;-8.02;41.35
75838;SHT30;64480;52.040;113.502;2023-02-23T11:37:24;-7.95;41.19
75838;SHT30;64480;52.040;113.502;2023-02-23T11:45:37;-8.07;41.23
75838;SHT30;64480;52.040;113.502;2023-02-23T11:49:19;-8.14;41.58
75838;SHT30;64480;52.040;113.502;2023-02-23T11:52:42;-8.26;41.71
75838;SHT30;64480;52.040;113.502;2023-02-23T11:56:07;-8.34;42.07
75838;SHT30;64480;52.040;113.502;2023-02-23T11:59:39;-8.40;42.58
75838;SHT30;64480;52.040;113.502;2023-02-23T12:02:59;-8.50;43.17
75838;SHT30;64480;52.040;113.502;2023-02-23T12:06:08;-8.48;43.41
75838;SHT30;64480;52.040;113.502;2023-02-23T12:09:28;-8.47;43.85
75838;SHT30;64480;52.040;113.502;2023-02-23T12:12:50;-8.48;43.63
75838;SHT30;64480;52.040;113.502;2023-02-23T12:19:48;-8.58;43.68
75838;SHT30;64480;52.040;113.502;2023-02-23T12:23:24;-8.61;43.84
75838;SHT30;64480;52.040;113.502;2023-02-23T12:26:57;-8.69;44.07
75838;SHT30;64480;52.040;113.502;2023-02-23T12:30:37;-8.76;44.01
75838;SHT30;64480;52.040;113.502;2023-02-23T12:34:48;-8.85;43.60
75838;SHT30;64480;52.040;113.502;2023-02-23T12:38:14;-8.91;43.62
75838;SHT30;64480;52.040;113.502;2023-02-23T12:41:44;-9.00;43.39
75838;SHT30;64480;52.040;113.502;2023-02-23T12:45:15;-9.12;43.71
75838;SHT30;64480;52.040;113.502;2023-02-23T12:48:47;-9.22;43.81
75838;SHT30;64480;52.040;113.502;2023-02-23T12:52:31;-9.34;44.05
75838;SHT30;64480;52.040;113.502;2023-02-23T12:56:18;-9.44;44.61
75838;SHT30;64480;52.040;113.502;2023-02-23T13:03:39;-9.54;45.44
75838;SHT30;64480;52.040;113.502;2023-02-23T13:07:26;-9.58;45.53
75838;SHT30;64480;52.040;113.502;2023-02-23T13:14:37;-9.63;46.07
75838;SHT30;64480;52.040;113.502;2023-02-23T13:29:40;-9.86;45.71
75838;SHT30;64480;52.040;113.502;2023-02-23T13:33:14;-9.86;46.15
75838;SHT30;64480;52.040;113.502;2023-02-23T13:36:42;-9.90;45.90
75838;SHT30;64480;52.040;113.502;2023-02-23T13:51:25;-10.13;45.85
75838;SHT30;64480;52.040;113.502;2023-02-23T13:55:43;-10.14;45.80
75838;SHT30;64480;52.040;113.502;2023-02-23T13:59:30;-10.20;46.25
75838;SHT30;64480;52.040;113.502;2023-02-23T14:03:32;-10.18;46.37
75838;SHT30;64480;52.040;113.502;2023-02-23T14:06:57;-10.09;46.75
75838;SHT30;64480;52.040;113.502;2023-02-23T14:10:06;-10.00;46.69
75838;SHT30;64480;52.040;113.502;2023-02-23T14:13:38;-10.13;47.18
75838;SHT30;64480;52.040;113.502;2023-02-23T14:17:36;-10.25;47.65
75838;SHT30;64480;52.040;113.502;2023-02-23T14:29:19;-10.49;48.59
75838;SHT30;64480;52.040;113.502;2023-02-23T14:32:30;-10.53;48.72
75838;SHT30;64480;52.040;113.502;2023-02-23T14:35:54;-10.53;48.65
75838;SHT30;64480;52.040;113.502;2023-02-23T14:39:21;-10.55;48.87
75838;SHT30;64480;52.040;113.502;2023-02-23T14:42:56;-10.45;49.13
75838;SHT30;64480;52.040;113.502;2023-02-23T15:00:55;-10.73;48.90
75838;SHT30;64480;52.040;113.502;2023-02-23T15:04:29;-10.82;49.35
75838;SHT30;64480;52.040;113.502;2023-02-23T15:07:46;-10.80;49.38
75838;SHT30;64480;52.040;113.502;2023-02-23T15:11:13;-10.87;49.37
75838;SHT30;64480;52.040;113.502;2023-02-23T15:14:36;-10.90;49.00
75838;SHT30;64480;52.040;113.502;2023-02-23T15:18:02;-11.00;49.02
75838;SHT30;64480;52.040;113.502;2023-02-23T15:21:18;-11.10;49.13
75838;SHT30;64480;52.040;113.502;2023-02-23T15:24:46;-11.17;49.34
75838;SHT30;64480;52.040;113.502;2023-02-23T15:28:23;-11.17;49.92
75838;SHT30;64480;52.040;113.502;2023-02-23T15:31:43;-11.14;49.67
75838;SHT30;64480;52.040;113.502;2023-02-23T15:34:55;-11.17;49.68
75838;SHT30;64480;52.040;113.502;2023-02-23T15:38:26;-11.06;49.26
75838;SHT30;64480;52.040;113.502;2023-02-23T15:41:58;-10.99;49.07
75838;SHT30;64480;52.040;113.502;2023-02-23T15:45:35;-10.93;49.12
75838;SHT30;64480;52.040;113.502;2023-02-23T15:49:00;-10.80;48.80
75838;SHT30;64480;52.040;113.502;2023-02-23T15:52:21;-10.76;48.47
75838;SHT30;64480;52.040;113.502;2023-02-23T15:55:34;-10.82;48.50
75838;SHT30;64480;52.040;113.502;2023-02-23T15:58:56;-10.90;48.52
75838;SHT30;64480;52.040;113.502;2023-02-23T16:02:18;-10.95;48.41
75838;SHT30;64480;52.040;113.502;2023-02-23T16:05:36;-11.06;48.49
75838;SHT30;64480;52.040;113.502;2023-02-23T16:09:13;-11.14;48.64
75838;SHT30;64480;52.040;113.502;2023-02-23T16:12:30;-11.18;48.77
75838;SHT30;64480;52.040;113.502;2023-02-23T16:15:45;-11.23;48.84
75838;SHT30;64480;52.040;113.502;2023-02-23T16:18:53;-11.21;49.09
75838;SHT30;64480;52.040;113.502;2023-02-23T16:22:25;-11.34;49.00
75838;SHT30;64480;52.040;113.502;2023-02-23T16:25:46;-11.31;49.03
75838;SHT30;64480;52.040;113.502;2023-02-23T16:28:57;-11.30;48.89
75838;SHT30;64480;52.040;113.502;2023-02-23T16:32:20;-11.30;49.01
75838;SHT30;64480;52.040;113.502;2023-02-23T16:35:46;-11.36;48.60
75838;SHT30;64480;52.040;113.502;2023-02-23T16:39:01;-11.42;48.58
75838;SHT30;64480;52.040;113.502;2023-02-23T16:45:39;-11.74;48.92
75838;SHT30;64480;52.040;113.502;2023-02-23T16:48:53;-11.89;49.14
75838;SHT30;64480;52.040;113.502;2023-02-23T16:52:17;-12.02;49.31
75838;SHT30;64480;52.040;113.502;2023-02-23T16:55:26;-12.06;49.66
75838;SHT30;64480;52.040;113.502;2023-02-23T16:58:38;-12.17;49.81
75838;SHT30;64480;52.040;113.502;2023-02-23T17:01:55;-12.04;50.14
75838;SHT30;64480;52.040;113.502;2023-02-23T17:05:13;-12.13;50.41
75838;SHT30;64480;52.040;113.502;2023-02-23T17:08:28;-12.17;50.43
75838;SHT30;64480;52.040;113.502;2023-02-23T17:11:45;-12.24;50.68
75838;SHT30;64480;52.040;113.502;2023-02-23T17:15:09;-12.29;50.45
75838;SHT30;64480;52.040;113.502;2023-02-23T17:18:25;-12.45;50.19
75838;SHT30;64480;52.040;113.502;2023-02-23T17:21:35;-12.66;50.37
75838;SHT30;64480;52.040;113.502;2023-02-23T17:24:47;-12.83;50.98
75838;SHT30;64480;52.040;113.502;2023-02-23T17:27:55;-12.98;51.29
75838;SHT30;64480;52.040;113.502;2023-02-23T17:31:04;-12.98;51.59
75838;SHT30;64480;52.040;113.502;2023-02-23T17:34:11;-13.02;51.97
75838;SHT30;64480;52.040;113.502;2023-02-23T17:37:22;-12.97;52.30
75838;SHT30;64480;52.040;113.502;2023-02-23T17:40:26;-13.10;52.43
75838;SHT30;64480;52.040;113.502;2023-02-23T17:43:38;-13.10;52.66
75838;SHT30;64480;52.040;113.502;2023-02-23T17:46:43;-13.10;53.01
75838;SHT30;64480;52.040;113.502;2023-02-23T17:49:51;-13.18;53.16
75838;SHT30;64480;52.040;113.502;2023-02-23T17:53:09;-13.15;52.95
75838;SHT30;64480;52.040;113.502;2023-02-23T17:56:13;-13.15;52.81
75838;SHT30;64480;52.040;113.502;2023-02-23T17:59:32;-13.15;52.74
75838;SHT30;64480;52.040;113.502;2023-02-23T18:02:40;-13.21;52.32
75838;SHT30;64480;52.040;113.502;2023-02-23T18:05:59;-13.23;52.03
75838;SHT30;64480;52.040;113.502;2023-02-23T18:09:07;-13.32;52.20
75838;SHT30;64480;52.040;113.502;2023-02-23T18:12:18;-13.39;51.88
75838;SHT30;64480;52.040;113.502;2023-02-23T18:15:25;-13.44;51.72
75838;SHT30;64480;52.040;113.502;2023-02-23T18:18:33;-13.50;52.22
75838;SHT30;64480;52.040;113.502;2023-02-23T18:21:50;-13.54;52.64
75838;SHT30;64480;52.040;113.502;2023-02-23T18:25:29;-13.49;52.81
75838;SHT30;64480;52.040;113.502;2023-02-23T18:28:47;-13.44;52.76
75838;SHT30;64480;52.040;113.502;2023-02-23T18:32:14;-13.44;52.78
75838;SHT30;64480;52.040;113.502;2023-02-23T18:35:43;-13.49;52.80
75838;SHT30;64480;52.040;113.502;2023-02-23T18:39:05;-13.59;52.59
75838;SHT30;64480;52.040;113.502;2023-02-23T18:42:25;-13.59;52.33
75838;SHT30;64480;52.040;113.502;2023-02-23T18:45:41;-13.56;52.14
75838;SHT30;64480;52.040;113.502;2023-02-23T18:49:03;-13.61;52.07
75838;SHT30;64480;52.040;113.502;2023-02-23T18:52:16;-13.67;52.12
75838;SHT30;64480;52.040;113.502;2023-02-23T18:55:30;-13.70;52.11
75838;SHT30;64480;52.040;113.502;2023-02-23T18:58:36;-13.77;52.19
75838;SHT30;64480;52.040;113.502;2023-02-23T19:01:55;-13.87;52.50
75838;SHT30;64480;52.040;113.502;2023-02-23T19:05:13;-14.06;52.24
75838;SHT30;64480;52.040;113.502;2023-02-23T19:08:30;-14.42;51.48
75838;SHT30;64480;52.040;113.502;2023-02-23T19:11:48;-14.72;52.24
75838;SHT30;64480;52.040;113.502;2023-02-23T19:14:55;-14.72;52.65
75838;SHT30;64480;52.040;113.502;2023-02-23T19:18:14;-14.77;52.51
75838;SHT30;64480;52.040;113.502;2023-02-23T19:21:25;-14.88;52.76
75838;SHT30;64480;52.040;113.502;2023-02-23T19:24:33;-14.98;52.67
75838;SHT30;64480;52.040;113.502;2023-02-23T19:27:44;-14.96;52.79
75838;SHT30;64480;52.040;113.502;2023-02-23T19:31:09;-14.98;52.91
75838;SHT30;64480;52.040;113.502;2023-02-23T19:34:30;-14.92;52.94
75838;SHT30;64480;52.040;113.502;2023-02-23T19:37:57;-14.93;54.31
75838;SHT30;64480;52.040;113.502;2023-02-23T19:41:26;-14.87;53.96
75838;SHT30;64480;52.040;113.502;2023-02-23T19:44:35;-14.84;53.48
75838;SHT30;64480;52.040;113.502;2023-02-23T19:47:54;-14.88;53.98
75838;SHT30;64480;52.040;113.502;2023-02-23T19:51:17;-14.84;54.56
75838;SHT30;64480;52.040;113.502;2023-02-23T19:54:27;-14.82;54.50
75838;SHT30;64480;52.040;113.502;2023-02-23T19:57:50;-14.95;52.92
75838;SHT30;64480;52.040;113.502;2023-02-23T20:00:55;-15.13;52.28
75838;SHT30;64480;52.040;113.502;2023-02-23T20:04:01;-15.20;53.40
75838;SHT30;64480;52.040;113.502;2023-02-23T20:07:08;-15.23;53.17
75838;SHT30;64480;52.040;113.502;2023-02-23T20:10:17;-15.26;52.98
75838;SHT30;64480;52.040;113.502;2023-02-23T20:13:29;-15.17;53.10
75838;SHT30;64480;52.040;113.502;2023-02-23T20:16:37;-15.23;53.17
75838;SHT30;64480;52.040;113.502;2023-02-23T20:19:48;-15.23;53.44
75838;SHT30;64480;52.040;113.502;2023-02-23T20:22:54;-15.45;54.39
75838;SHT30;64480;52.040;113.502;2023-02-23T20:26:07;-15.40;54.65
75838;SHT30;64480;52.040;113.502;2023-02-23T20:29:19;-15.43;54.02
75838;SHT30;64480;52.040;113.502;2023-02-23T20:32:31;-15.50;54.55
75838;SHT30;64480;52.040;113.502;2023-02-23T20:35:47;-15.44;54.93
75838;SHT30;64480;52.040;113.502;2023-02-23T20:39:01;-15.41;55.20
75838;SHT30;64480;52.040;113.502;2023-02-23T20:42:05;-15.23;56.21
75838;SHT30;64480;52.040;113.502;2023-02-23T20:45:20;-15.13;55.70
75838;SHT30;64480;52.040;113.502;2023-02-23T20:48:34;-15.07;55.75
75838;SHT30;64480;52.040;113.502;2023-02-23T20:51:46;-15.02;55.75
75838;SHT30;64480;52.040;113.502;2023-02-23T20:54:57;-14.99;55.41
75838;SHT30;64480;52.040;113.502;2023-02-23T20:58:14;-14.99;55.30
75838;SHT30;64480;52.040;113.502;2023-02-23T21:01:29;-14.96;55.39
75838;SHT30;64480;52.040;113.502;2023-02-23T21:04:36;-14.88;55.42
75838;SHT30;64480;52.040;113.502;2023-02-23T21:08:00;-14.85;55.37
75838;SHT30;64480;52.040;113.502;2023-02-23T21:11:22;-14.77;55.67
75838;SHT30;64480;52.040;113.502;2023-02-23T21:14:30;-14.72;55.34
75838;SHT30;64480;52.040;113.502;2023-02-23T21:17:59;-14.99;52.91
75838;SHT30;64480;52.040;113.502;2023-02-23T21:21:15;-15.26;52.35
75838;SHT30;64480;52.040;113.502;2023-02-23T21:24:20;-15.41;52.67
75838;SHT30;64480;52.040;113.502;2023-02-23T21:27:38;-15.59;53.42
75838;SHT30;64480;52.040;113.502;2023-02-23T21:30:55;-15.71;53.31
75838;SHT30;64480;52.040;113.502;2023-02-23T21:34:00;-15.68;53.30
75838;SHT30;64480;52.040;113.502;2023-02-23T21:37:26;-15.76;53.54
75838;SHT30;64480;52.040;113.502;2023-02-23T21:40:47;-15.82;54.05
75838;SHT30;64480;52.040;113.502;2023-02-23T21:44:00;-15.83;53.03
75838;SHT30;64480;52.040;113.502;2023-02-23T21:47:06;-15.90;52.74
75838;SHT30;64480;52.040;113.502;2023-02-23T21:50:23;-16.06;52.77
75838;SHT30;64480;52.040;113.502;2023-02-23T21:53:30;-16.18;52.56
75838;SHT30;64480;52.040;113.502;2023-02-23T21:56:54;-16.31;53.19
75838;SHT30;64480;52.040;113.502;2023-02-23T22:00:13;-16.39;53.47
75838;SHT30;64480;52.040;113.502;2023-02-23T22:03:32;-16.52;53.43
75838;SHT30;64480;52.040;113.502;2023-02-23T22:06:44;-16.69;53.03
75838;SHT30;64480;52.040;113.502;2023-02-23T22:09:55;-17.00;52.31
75838;SHT30;64480;52.040;113.502;2023-02-23T22:13:13;-17.28;52.77
75838;SHT30;64480;52.040;113.502;2023-02-23T22:16:20;-17.43;53.27
75838;SHT30;64480;52.040;113.502;2023-02-23T22:19:36;-17.42;53.99
75838;SHT30;64480;52.040;113.502;2023-02-23T22:22:41;-17.32;53.97
75838;SHT30;64480;52.040;113.502;2023-02-23T22:25:50;-17.34;53.80
75838;SHT30;64480;52.040;113.502;2023-02-23T22:29:09;-17.28;54.11
75838;SHT30;64480;52.040;113.502;2023-02-23T22:32:17;-17.22;54.00
75838;SHT30;64480;52.040;113.502;2023-02-23T22:35:22;-17.22;53.58
75838;SHT30;64480;52.040;113.502;2023-02-23T22:38:29;-17.41;53.06
75838;SHT30;64480;52.040;113.502;2023-02-23T22:41:39;-17.67;52.80
75838;SHT30;64480;52.040;113.502;2023-02-23T22:44:59;-17.88;53.45
75838;SHT30;64480;52.040;113.502;2023-02-23T22:48:11;-17.90;53.56
75838;SHT30;64480;52.040;113.502;2023-02-23T22:51:18;-17.91;53.69